Mayo, South Carolina
Current Conditions -  °F | °C
As of 7:35 PM on Wednesday 22 Oct 2014 (Local Time) from KSPA Reporting Station
Clear Clear  
Wind Chill: 59°   Ceiling: Unl
Heat Index: 59°   Visibility: 10mi
Dew Point: 39°   Wind: 9mph
Humidity: 48%   Direction: 20°NNE
Pressure: 30.08"   Gusts: NA
Location:  35.08°N, 81.86°W
Report Text: KSPA 222335Z AUTO 02008KT 10SM CLR 15/04 A3008 RMK AO2
Loading
Personal Weather Stations






























Interactive Weather Map
Tropical Storm Tracking
New forecast layout! Learn more

10-Day Weather Forecast

Advertisements
Track Severe Weather on mobile